Terminal Aerodrome Forecast
Issued by NWS North Platte, NE

Home | Current Version | Previous Version | Text Only | Print | Product List | Glossary On
Versions: 1 2 3 4 5 6 7 8 9 10 11 12 13 14 15 16 17 18 19 20
000
FTUS43 KLBF 231700
TAFLBF
TAF
KLBF 231720Z 2318/2418 19008KT P6SM OVC007
     FM231900 18008KT P6SM SCT025 OVC050
     FM240100 30006KT P6SM BKN050
      TEMPO 2403/2406 5SM -TSRA BKN050CB
     FM240600 VRB06KT P6SM BKN100=

USA.gov is the U.S. government's official web portal to all federal, state and local government web resources and services.